Corning, California
Current Conditions -  °F | °C
As of 6:54 AM on Saturday 20 Dec 2014 (Local Time) from KRBL Reporting Station
Haze Haze  
Wind Chill: 52°   Ceiling: 300
Heat Index: 52°   Visibility: 4mi
Dew Point: 51°   Wind: 13mph
Humidity: 97%   Direction: 160°SSE
Pressure: 30.13"   Gusts: NA
Location:  39.93°N, 122.17°W
Report Text: KRBL 201454Z AUTO 16011KT 4SM BR OVC003 11/11 A3013 RMK AO2 SLP204 60002 T01110106 53003
Loading
Personal Weather Stations






























Interactive Weather Map New forecast layout! Learn more

10-Day Weather Forecast

Advertisements
Track Severe Weather on mobile